createdAt,value
2016-06-19T00:00:46.562Z,99.99
2016-06-19T00:01:47.206Z,99.99
2016-06-19T00:02:46.631Z,99.99
2016-06-19T00:03:46.681Z,99.99
2016-06-19T00:04:46.717Z,99.99
2016-06-19T00:05:47.360Z,99.99
2016-06-19T00:06:46.786Z,99.99
2016-06-19T00:07:46.820Z,99.99
2016-06-19T00:08:46.855Z,99.99
2016-06-19T00:09:47.500Z,99.99
2016-06-19T00:10:47.533Z,99.99
2016-06-19T00:11:46.959Z,99.99
2016-06-19T00:12:46.995Z,99.99
2016-06-19T00:13:47.638Z,99.99
2016-06-19T00:14:47.064Z,99.99
2016-06-19T00:15:47.723Z,99.99
2016-06-19T00:16:47.742Z,99.99
2016-06-19T00:17:47.777Z,99.99
2016-06-19T00:18:47.218Z,99.99
2016-06-19T00:19:47.847Z,99.99
2016-06-19T00:20:47.288Z,99.99
2016-06-19T00:21:47.932Z,99.99
2016-06-19T00:22:47.357Z,99.99
2016-06-19T00:23:47.391Z,99.99
2016-06-19T00:24:48.036Z,99.99
2016-06-19T00:25:47.461Z,99.99
2016-06-19T00:26:47.496Z,99.99
2016-06-19T00:27:48.140Z,99.99
2016-06-19T00:28:47.580Z,99.99
2016-06-19T00:29:47.615Z,99.99
2016-06-19T00:30:47.650Z,99.99
2016-06-19T00:31:47.685Z,99.99
2016-06-19T00:32:47.720Z,99.99
2016-06-19T00:33:48.348Z,99.99
2016-06-19T00:34:47.789Z,99.99
2016-06-19T00:35:47.824Z,99.99
2016-06-19T00:36:47.859Z,99.99
2016-06-19T00:37:47.893Z,99.99
2016-06-19T00:38:48.537Z,99.99
2016-06-19T00:39:47.978Z,99.99
2016-06-19T00:40:47.997Z,99.99
2016-06-19T00:41:48.657Z,99.99
2016-06-19T00:42:48.067Z,99.99
2016-06-19T00:43:48.727Z,99.99
2016-06-19T00:44:48.762Z,99.99
2016-06-19T00:45:48.796Z,99.99
2016-06-19T00:46:48.815Z,99.99
2016-06-19T00:47:48.865Z,99.99
2016-06-19T00:48:48.290Z,99.99
2016-06-19T00:49:48.935Z,99.99
2016-06-19T00:50:48.969Z,99.99
2016-06-19T00:51:48.395Z,99.99
2016-06-19T00:52:49.039Z,99.99
2016-06-19T00:53:49.073Z,99.99
2016-06-19T00:54:48.498Z,99.99
2016-06-19T00:55:48.533Z,99.99
2016-06-19T00:56:49.178Z,99.99
2016-06-19T00:57:49.212Z,99.99
2016-06-19T00:58:48.654Z,99.99
2016-06-19T00:59:48.688Z,99.99
2016-06-19T01:00:49.332Z,99.99
2016-06-19T01:01:49.367Z,99.99
2016-06-19T01:02:49.402Z,99.99
2016-06-19T01:03:49.436Z,99.99
2016-06-19T01:04:49.470Z,99.99
2016-06-19T01:05:48.896Z,99.99
2016-06-19T01:06:49.540Z,99.99
2016-06-19T01:07:48.965Z,99.99
2016-06-19T01:08:49.625Z,99.99
2016-06-19T01:09:49.034Z,99.99
2016-06-19T01:10:49.085Z,99.99
2016-06-19T01:11:49.730Z,99.99
2016-06-19T01:12:49.764Z,99.99
2016-06-19T01:13:49.784Z,99.99
2016-06-19T01:14:49.834Z,99.99
2016-06-19T01:15:49.259Z,99.99
2016-06-19T01:16:49.903Z,99.99
2016-06-19T01:17:49.329Z,99.99
2016-06-19T01:18:49.973Z,99.99
2016-06-19T01:19:50.007Z,99.99
2016-06-19T01:20:49.433Z,99.99
2016-06-19T01:21:49.483Z,99.99
2016-06-19T01:22:49.517Z,99.99
2016-06-19T01:23:50.146Z,99.99
2016-06-19T01:24:50.181Z,99.99
2016-06-19T01:25:50.231Z,99.99
2016-06-19T01:26:50.266Z,99.99
2016-06-19T01:27:50.300Z,99.99
2016-06-19T01:28:50.335Z,99.99
2016-06-19T01:29:50.370Z,99.99
2016-06-19T01:30:50.405Z,99.99
2016-06-19T01:31:50.455Z,99.99
2016-06-19T01:32:50.474Z,99.99
2016-06-19T01:33:49.900Z,99.99
2016-06-19T01:34:50.543Z,99.99
2016-06-19T01:35:50.594Z,99.99
2016-06-19T01:36:50.628Z,99.99
2016-06-19T01:37:50.053Z,99.99
2016-06-19T01:38:50.698Z,99.99
2016-06-19T01:39:50.124Z,99.99
2016-06-19T01:40:50.767Z,99.99
2016-06-19T01:41:50.192Z,99.99
2016-06-19T01:42:50.837Z,99.99
2016-06-19T01:43:50.871Z,99.99
2016-06-19T01:44:50.297Z,99.99
2016-06-19T01:45:50.941Z,99.99
2016-06-19T01:46:50.365Z,99.99
2016-06-19T01:47:50.401Z,99.99
2016-06-19T01:48:50.436Z,99.99
2016-06-19T01:49:51.080Z,99.99
2016-06-19T01:50:51.114Z,99.99
2016-06-19T01:51:51.149Z,99.99
2016-06-19T01:52:51.184Z,99.99
2016-06-19T01:53:50.609Z,99.99
2016-06-19T01:54:50.647Z,99.99
2016-06-19T01:55:51.296Z,99.99
2016-06-19T01:56:50.741Z,99.99
2016-06-19T01:57:51.388Z,99.99
2016-06-19T01:58:51.410Z,99.99
2016-06-19T01:59:51.462Z,99.99
2016-06-19T02:00:51.498Z,99.99
2016-06-19T02:01:51.518Z,99.99
2016-06-19T02:02:50.961Z,99.99
2016-06-19T02:03:50.996Z,99.99
2016-06-19T02:04:51.032Z,99.99
2016-06-19T02:05:51.067Z,99.99
2016-06-19T02:06:51.711Z,99.99
2016-06-19T02:07:51.137Z,99.99
2016-06-19T02:08:51.782Z,99.99
2016-06-19T02:09:51.207Z,99.99
2016-06-19T02:10:51.242Z,99.99
2016-06-19T02:11:51.276Z,99.99
2016-06-19T02:12:51.311Z,99.99
2016-06-19T02:13:51.955Z,99.99
2016-06-19T02:14:51.990Z,99.99
2016-06-19T02:15:52.024Z,99.99
2016-06-19T02:16:51.450Z,99.99
2016-06-19T02:17:51.500Z,99.99
2016-06-19T02:18:52.129Z,99.99
2016-06-19T02:19:52.163Z,99.99
2016-06-19T02:20:52.198Z,99.99
2016-06-19T02:21:51.624Z,99.99
2016-06-19T02:22:52.267Z,99.99
2016-06-19T02:23:51.708Z,99.99
2016-06-19T02:24:52.337Z,99.99
2016-06-19T02:25:51.763Z,99.99
2016-06-19T02:26:52.406Z,99.99
2016-06-19T02:27:52.441Z,99.99
2016-06-19T02:28:51.867Z,99.99
2016-06-19T02:29:51.901Z,99.99
2016-06-19T02:30:51.952Z,99.99
2016-06-19T02:31:52.580Z,99.99
2016-06-19T02:32:52.021Z,99.99
2016-06-19T02:33:52.055Z,99.99
2016-06-19T02:34:52.091Z,99.99
2016-06-19T02:35:52.719Z,99.99
2016-06-19T02:36:52.159Z,99.99
2016-06-19T02:37:52.819Z,99.99
2016-06-19T02:38:52.244Z,99.99
2016-06-19T02:39:52.247Z,99.99
2016-06-19T02:40:52.908Z,99.99
2016-06-19T02:41:52.333Z,99.99
2016-06-19T02:42:52.368Z,99.99
2016-06-19T02:43:52.403Z,99.99
2016-06-19T02:44:52.437Z,99.99
2016-06-19T02:45:53.065Z,99.99
2016-06-19T02:46:53.116Z,99.99
2016-06-19T02:47:53.151Z,99.99
2016-06-19T02:48:53.185Z,99.99
2016-06-19T02:49:53.204Z,99.99
2016-06-19T02:50:53.255Z,99.99
2016-06-19T02:51:52.681Z,99.99
2016-06-19T02:52:53.324Z,99.99
2016-06-19T02:53:52.749Z,99.99
2016-06-19T02:54:52.785Z,99.99
2016-06-19T02:55:53.428Z,99.99
2016-06-19T02:56:53.463Z,99.99
2016-06-19T02:57:52.904Z,99.99
2016-06-19T02:58:53.533Z,99.99
2016-06-19T02:59:53.583Z,99.99
2016-06-19T03:00:53.602Z,99.99
2016-06-19T03:01:53.027Z,99.99
2016-06-19T03:02:53.671Z,99.99
2016-06-19T03:03:53.097Z,99.99
2016-06-19T03:04:53.741Z,99.99
2016-06-19T03:05:53.791Z,99.99
2016-06-19T03:06:53.810Z,99.99
2016-06-19T03:07:53.252Z,99.99
2016-06-19T03:08:53.880Z,99.99
2016-06-19T03:09:53.320Z,99.99
2016-06-19T03:10:53.355Z,99.99
2016-06-19T03:11:53.421Z,99.99
2016-06-19T03:12:54.034Z,99.99
2016-06-19T03:13:54.069Z,99.99
2016-06-19T03:14:53.494Z,99.99
2016-06-19T03:15:54.138Z,99.99
2016-06-19T03:16:54.173Z,99.99
2016-06-19T03:17:54.208Z,99.99
2016-06-19T03:18:54.242Z,99.99
2016-06-19T03:19:54.277Z,99.99
2016-06-19T03:20:54.312Z,99.99
2016-06-19T03:21:54.346Z,99.99
2016-06-19T03:22:54.381Z,99.99
2016-06-19T03:23:53.807Z,99.99
2016-06-19T03:24:53.857Z,99.99
2016-06-19T03:25:53.876Z,99.99
2016-06-19T03:26:54.535Z,99.99
2016-06-19T03:27:53.946Z,99.99
2016-06-19T03:28:54.589Z,99.99
2016-06-19T03:29:54.046Z,99.99
2016-06-19T03:30:54.065Z,99.99
2016-06-19T03:31:54.724Z,99.99
2016-06-19T03:32:54.744Z,99.99
2016-06-19T03:33:54.779Z,99.99
2016-06-19T03:34:54.204Z,99.99
2016-06-19T03:35:54.863Z,99.99
2016-06-19T03:36:54.883Z,99.99
2016-06-19T03:37:54.308Z,99.99
2016-06-19T03:38:54.343Z,99.99
2016-06-19T03:39:54.987Z,99.99
2016-06-19T03:40:54.412Z,99.99
2016-06-19T03:41:55.056Z,99.99
2016-06-19T03:42:54.482Z,99.99
2016-06-19T03:43:55.126Z,99.99
2016-06-19T03:44:55.160Z,99.99
2016-06-19T03:45:55.195Z,99.99
2016-06-19T03:46:54.621Z,99.99
2016-06-19T03:47:54.654Z,99.99
2016-06-19T03:48:54.690Z,99.99
2016-06-19T03:49:54.725Z,99.99
2016-06-19T03:50:55.384Z,99.99
2016-06-19T03:51:55.403Z,99.99
2016-06-19T03:52:55.439Z,99.99
2016-06-19T03:53:55.473Z,99.99
2016-06-19T03:54:55.507Z,99.99
2016-06-19T03:55:55.543Z,99.99
2016-06-19T03:56:54.967Z,99.99
2016-06-19T03:57:55.018Z,99.99
2016-06-19T03:58:55.662Z,99.99
2016-06-19T03:59:55.682Z,99.99
2016-06-19T04:00:55.731Z,99.99
2016-06-19T04:01:55.766Z,99.99
2016-06-19T04:02:55.192Z,99.99
2016-06-19T04:03:55.820Z,99.99
2016-06-19T04:04:55.886Z,99.99
2016-06-19T04:05:55.905Z,99.99
2016-06-19T04:06:55.331Z,99.99
2016-06-19T04:07:55.365Z,99.99
2016-06-19T04:08:55.400Z,99.99
2016-06-19T04:09:56.044Z,99.99
2016-06-19T04:10:56.079Z,99.99
2016-06-19T04:11:55.506Z,99.99
2016-06-19T04:12:55.543Z,99.99
2016-06-19T04:13:56.188Z,99.99
2016-06-19T04:14:56.224Z,99.99
2016-06-19T04:15:56.260Z,99.99
2016-06-19T04:16:56.311Z,99.99
2016-06-19T04:17:56.347Z,99.99
2016-06-19T04:18:56.382Z,99.99
2016-06-19T04:19:55.793Z,99.99
2016-06-19T04:20:55.844Z,99.99
2016-06-19T04:21:55.878Z,99.99
2016-06-19T04:22:56.506Z,99.99
2016-06-19T04:23:56.557Z,99.99
2016-06-19T04:24:56.592Z,99.99
2016-06-19T04:25:56.611Z,99.99
2016-06-19T04:26:56.661Z,99.99
2016-06-19T04:27:56.086Z,99.99
2016-06-19T04:28:56.121Z,99.99
2016-06-19T04:29:56.156Z,99.99
2016-06-19T04:30:56.190Z,99.99
2016-06-19T04:31:56.224Z,99.99
2016-06-19T04:32:56.260Z,99.99
2016-06-19T04:33:56.295Z,99.99
2016-06-19T04:34:56.939Z,99.99
2016-06-19T04:35:56.363Z,99.99
2016-06-19T04:36:57.008Z,99.99
2016-06-19T04:37:57.043Z,99.99
2016-06-19T04:38:57.077Z,99.99
2016-06-19T04:39:56.502Z,99.99
2016-06-19T04:40:56.553Z,99.99
2016-06-19T04:41:57.181Z,99.99
2016-06-19T04:42:56.623Z,99.99
2016-06-19T04:43:57.267Z,99.99
2016-06-19T04:44:56.691Z,99.99
2016-06-19T04:45:56.727Z,99.99
2016-06-19T04:46:57.371Z,99.99
2016-06-19T04:47:56.812Z,99.99
2016-06-19T04:48:57.440Z,99.99
2016-06-19T04:49:56.866Z,99.99
2016-06-19T04:50:57.525Z,99.99
2016-06-19T04:51:56.935Z,99.99
2016-06-19T04:52:57.579Z,99.96
2016-06-19T04:53:57.629Z,99.99
2016-06-19T04:54:57.664Z,99.99
2016-06-19T04:55:57.699Z,99.99
2016-06-19T04:56:57.124Z,99.99
2016-06-19T04:57:57.158Z,99.99
2016-06-19T04:58:57.193Z,99.99
2016-06-19T04:59:57.868Z,99.99
2016-06-19T05:00:57.279Z,99.99
2016-06-19T05:01:57.314Z,99.99
2016-06-19T05:02:57.348Z,99.99
2016-06-19T05:03:57.382Z,99.99
2016-06-19T05:04:57.418Z,99.99
2016-06-19T05:05:58.061Z,99.99
2016-06-19T05:06:58.096Z,99.82
2016-06-19T05:07:57.537Z,98.24
2016-06-19T05:08:58.181Z,95.75
2016-06-19T05:09:57.606Z,94.64
2016-06-19T05:10:57.642Z,96.08
2016-06-19T05:11:58.285Z,96.42
2016-06-19T05:12:57.710Z,94.88
2016-06-19T05:13:57.761Z,93.97
2016-06-19T05:14:58.405Z,94.35
2016-06-19T05:15:57.846Z,94.4
2016-06-19T05:16:58.474Z,95.46
2016-06-19T05:17:57.900Z,95.46
2016-06-19T05:18:58.559Z,96.32
2016-06-19T05:19:57.984Z,97.04
2016-06-19T05:20:58.644Z,98.1
2016-06-19T05:21:58.680Z,98.57
2016-06-19T05:22:58.698Z,99.19
2016-06-19T05:23:58.140Z,99.99
2016-06-19T05:24:58.783Z,99.99
2016-06-19T05:25:58.818Z,99.99
2016-06-19T05:26:58.853Z,99.99
2016-06-19T05:27:58.903Z,99.99
2016-06-19T05:28:58.954Z,99.99
2016-06-19T05:29:58.972Z,99.99
2016-06-19T05:30:58.413Z,99.99
2016-06-19T05:31:59.058Z,99.99
2016-06-19T05:32:58.482Z,99.99
2016-06-19T05:33:59.127Z,99.99
2016-06-19T05:34:59.162Z,99.99
2016-06-19T05:35:59.212Z,99.99
2016-06-19T05:36:59.232Z,99.99
2016-06-19T05:37:59.281Z,99.99
2016-06-19T05:38:58.706Z,99.99
2016-06-19T05:39:59.351Z,99.99
2016-06-19T05:40:58.793Z,99.99
2016-06-19T05:41:59.435Z,99.99
2016-06-19T05:42:58.862Z,99.99
2016-06-19T05:43:58.895Z,99.99
2016-06-19T05:44:58.931Z,99.99
2016-06-19T05:45:59.590Z,99.99
2016-06-19T05:46:59.609Z,99.99
2016-06-19T05:47:59.051Z,99.99
2016-06-19T05:48:59.084Z,99.99
2016-06-19T05:49:59.729Z,99.99
2016-06-19T05:50:59.155Z,99.99
2016-06-19T05:51:59.815Z,99.99
2016-06-19T05:52:59.848Z,99.99
2016-06-19T05:53:59.275Z,99.99
2016-06-19T05:54:59.308Z,99.99
2016-06-19T05:55:59.953Z,99.99
2016-06-19T05:56:59.988Z,99.99
2016-06-19T05:57:59.413Z,99.99
2016-06-19T05:58:59.464Z,99.99
2016-06-19T05:59:59.497Z,99.99
2016-06-19T06:00:59.532Z,99.99
2016-06-19T06:02:00.177Z,99.99
2016-06-19T06:03:00.227Z,99.99
2016-06-19T06:03:59.636Z,99.99
2016-06-19T06:05:00.296Z,99.99
2016-06-19T06:06:00.315Z,99.99
2016-06-19T06:07:00.366Z,99.99
2016-06-19T06:08:00.401Z,99.99
2016-06-19T06:08:59.842Z,99.99
2016-06-19T06:10:00.470Z,99.99
2016-06-19T06:10:59.896Z,99.99
2016-06-19T06:11:59.931Z,99.99
2016-06-19T06:13:00.590Z,99.99
2016-06-19T06:14:00.016Z,99.99
2016-06-19T06:15:00.660Z,99.99
2016-06-19T06:16:00.084Z,99.99
2016-06-19T06:17:00.120Z,99.99
2016-06-19T06:18:00.779Z,99.99
2016-06-19T06:19:00.188Z,99.99
2016-06-19T06:20:00.848Z,99.99
2016-06-19T06:21:00.883Z,99.99
2016-06-19T06:22:00.918Z,99.99
2016-06-19T06:23:00.952Z,99.99
2016-06-19T06:24:01.003Z,99.99
2016-06-19T06:25:00.429Z,99.99
2016-06-19T06:26:00.462Z,99.99
2016-06-19T06:27:01.107Z,99.99
2016-06-19T06:28:01.148Z,99.99
2016-06-19T06:29:00.579Z,99.99
2016-06-19T06:30:01.230Z,99.99
2016-06-19T06:31:00.676Z,99.48
2016-06-19T06:32:00.715Z,98.86
2016-06-19T06:33:00.753Z,98.47
2016-06-19T06:34:01.399Z,97.8
2016-06-19T06:35:01.452Z,96.66
2016-06-19T06:36:01.489Z,97.28
2016-06-19T06:37:00.916Z,96.56
2016-06-19T06:38:00.951Z,95.94
2016-06-19T06:39:01.613Z,96.61
2016-06-19T06:40:01.648Z,96.08
2016-06-19T06:41:01.683Z,94.89
2016-06-19T06:42:01.110Z,95.17
2016-06-19T06:43:01.143Z,94.31
2016-06-19T06:44:01.194Z,93.93
2016-06-19T06:45:01.838Z,94.07
2016-06-19T06:46:01.874Z,94.4
2016-06-19T06:47:01.299Z,94.4
2016-06-19T06:48:01.333Z,94.79
2016-06-19T06:49:01.993Z,94.12
2016-06-19T06:50:01.418Z,94.31
2016-06-19T06:51:01.453Z,94.59
2016-06-19T06:52:01.503Z,94.02
2016-06-19T06:53:01.538Z,95.36
2016-06-19T06:54:01.573Z,95.98
2016-06-19T06:55:01.623Z,95.12
2016-06-19T06:56:01.658Z,94.74
2016-06-19T06:57:02.302Z,94.64
2016-06-19T06:58:02.353Z,93.98
2016-06-19T06:59:02.371Z,93.78
2016-06-19T07:00:01.813Z,93.16
2016-06-19T07:01:01.847Z,93.35
2016-06-19T07:02:02.491Z,92.39
2016-06-19T07:03:01.932Z,92.58
2016-06-19T07:04:02.560Z,92.15
2016-06-19T07:05:02.611Z,92.72
2016-06-19T07:06:02.036Z,92.05
2016-06-19T07:07:02.680Z,89.18
2016-06-19T07:08:02.731Z,89.18
2016-06-19T07:09:02.780Z,89.41
2016-06-19T07:10:02.190Z,89.56
2016-06-19T07:11:02.834Z,90.9
2016-06-19T07:12:02.885Z,91
2016-06-19T07:13:02.358Z,89.99
2016-06-19T07:14:02.345Z,88.55
2016-06-19T07:15:02.395Z,87.3
2016-06-19T07:16:03.039Z,86.44
2016-06-19T07:17:02.464Z,87.78
2016-06-19T07:18:03.125Z,87.55
2016-06-19T07:19:03.159Z,88.31
2016-06-19T07:20:03.194Z,88.51
2016-06-19T07:21:03.229Z,88.98
2016-06-19T07:22:02.669Z,88.79
2016-06-19T07:23:02.704Z,89.27
2016-06-19T07:24:03.348Z,89.13
2016-06-19T07:25:03.383Z,90.28
2016-06-19T07:26:03.417Z,89.8
2016-06-19T07:27:03.468Z,89.18
2016-06-19T07:28:02.894Z,90.04
2016-06-19T07:29:03.552Z,90.33
2016-06-19T07:30:02.978Z,90.52
2016-06-19T07:31:03.013Z,89.65
2016-06-19T07:32:03.657Z,89.27
2016-06-19T07:33:03.099Z,89.56
2016-06-19T07:34:03.133Z,89.18
2016-06-19T07:35:03.777Z,88.98
2016-06-19T07:36:03.202Z,89.47
2016-06-19T07:37:03.252Z,88.55
2016-06-19T07:38:03.287Z,87.11
2016-06-19T07:39:03.947Z,87.4
2016-06-19T07:40:03.373Z,87.05
2016-06-19T07:41:03.407Z,86.19
2016-06-19T07:42:03.442Z,86.29
2016-06-19T07:43:04.101Z,84.47
2016-06-19T07:44:04.151Z,83.22
2016-06-19T07:45:04.171Z,82.64
2016-06-19T07:46:03.597Z,80.96
2016-06-19T07:47:04.256Z,75.42
2016-06-19T07:48:03.682Z,73.22
2016-06-19T07:49:04.325Z,69.99
2016-06-19T07:50:04.375Z,70.12
2016-06-19T07:51:03.800Z,69.38
2016-06-19T07:52:03.835Z,70.25
2016-06-19T07:53:04.496Z,71.91
2016-06-19T07:54:03.921Z,75.49
2016-06-19T07:55:03.971Z,76.19
2016-06-19T07:56:04.615Z,77.63
2016-06-19T07:57:04.057Z,78.21
2016-06-19T07:58:04.685Z,79.69
2016-06-19T07:59:04.735Z,79.79
2016-06-19T08:00:04.785Z,80.99
2016-06-19T08:01:04.820Z,83.36
2016-06-19T08:02:04.245Z,85.04
2016-06-19T08:03:04.905Z,84.27
2016-06-19T08:04:04.346Z,84.52
2016-06-19T08:05:04.365Z,86.11
2016-06-19T08:06:04.400Z,86.21
2016-06-19T08:07:05.076Z,87.74
2016-06-19T08:08:04.484Z,88.56
2016-06-19T08:09:05.145Z,89.71
2016-06-19T08:10:05.179Z,90.09
2016-06-19T08:11:04.605Z,91.19
2016-06-19T08:12:05.264Z,91.58
2016-06-19T08:13:05.299Z,92.15
2016-06-19T08:14:05.334Z,92.44
2016-06-19T08:15:04.775Z,92.44
2016-06-19T08:16:04.810Z,93.4
2016-06-19T08:17:04.843Z,94.17
2016-06-19T08:18:04.894Z,94.74
2016-06-19T08:19:05.539Z,93.98
2016-06-19T08:20:05.573Z,95.6
2016-06-19T08:21:05.608Z,95.89
2016-06-19T08:22:05.033Z,96.56
2016-06-19T08:23:05.084Z,95.89
2016-06-19T08:24:05.134Z,95.12
2016-06-19T08:25:05.778Z,94.45
2016-06-19T08:26:05.797Z,93.98
2016-06-19T08:27:05.863Z,95.41
2016-06-19T08:28:05.882Z,94.74
2016-06-19T08:29:05.917Z,94.35
2016-06-19T08:30:05.952Z,93.73
2016-06-19T08:31:05.392Z,93.35
2016-06-19T08:32:05.428Z,93.16
2016-06-19T08:33:06.071Z,92.39
2016-06-19T08:34:05.497Z,91.05
2016-06-19T08:35:05.547Z,90.86
2016-06-19T08:36:05.581Z,89.65
2016-06-19T08:37:06.226Z,90.52
2016-06-19T08:38:05.666Z,90.52
2016-06-19T08:39:05.702Z,89.41
2016-06-19T08:40:06.346Z,89.08
2016-06-19T08:41:06.380Z,89.51
2016-06-19T08:42:06.430Z,89.41
2016-06-19T08:43:05.871Z,88.07
2016-06-19T08:44:06.502Z,86.54
2016-06-19T08:45:05.946Z,87.07
2016-06-19T08:46:06.577Z,86.97
2016-06-19T08:47:06.021Z,86.97
2016-06-19T08:48:06.667Z,86.49
2016-06-19T08:49:06.719Z,86.4
2016-06-19T08:50:06.755Z,86.68
2016-06-19T08:51:06.791Z,86.58
2016-06-19T08:52:06.826Z,87.16
2016-06-19T08:53:06.878Z,86.88
2016-06-19T08:54:06.304Z,86.4
2016-06-19T08:55:06.948Z,86.01
2016-06-19T08:56:06.390Z,85.11
2016-06-19T08:57:07.034Z,86.01
2016-06-19T08:58:06.460Z,86.35
2016-06-19T08:59:06.510Z,86.01
2016-06-19T09:00:06.546Z,86.49
2016-06-19T09:01:07.189Z,86.21
2016-06-19T09:02:07.224Z,86.11
2016-06-19T09:03:07.259Z,86.16
2016-06-19T09:04:06.699Z,86.64
2016-06-19T09:05:06.734Z,87.93
2016-06-19T09:06:06.769Z,89.04
2016-06-19T09:07:06.820Z,86.93
2016-06-19T09:08:07.479Z,86.16
2016-06-19T09:09:06.889Z,86.25
2016-06-19T09:10:06.923Z,86.45
2016-06-19T09:11:07.583Z,86.64
2016-06-19T09:12:07.008Z,87.12
2016-06-19T09:13:07.652Z,87.41
2016-06-19T09:14:07.094Z,86.64
2016-06-19T09:15:07.128Z,86.45
2016-06-19T09:16:07.163Z,86.54
2016-06-19T09:17:07.198Z,85.58
2016-06-19T09:18:07.858Z,85.68
2016-06-19T09:19:07.893Z,86.88
2016-06-19T09:20:07.318Z,88.13
2016-06-19T09:21:07.962Z,89.37
2016-06-19T09:22:07.386Z,89.95
2016-06-19T09:23:07.437Z,90.14
2016-06-19T09:24:08.096Z,90.14
2016-06-19T09:25:08.116Z,90.81
2016-06-19T09:26:07.542Z,90.53
2016-06-19T09:27:08.185Z,90.09
2016-06-19T09:28:07.643Z,90.58
2016-06-19T09:29:07.660Z,91.92
2016-06-19T09:30:08.305Z,90.96
2016-06-19T09:31:08.356Z,91.44
2016-06-19T09:32:08.391Z,91.44
2016-06-19T09:33:08.425Z,91.34
2016-06-19T09:34:08.460Z,91.82
2016-06-19T09:35:08.494Z,91.34
2016-06-19T09:36:08.529Z,92.21
2016-06-19T09:37:07.969Z,91.86
2016-06-19T09:38:08.005Z,91.77
2016-06-19T09:39:08.649Z,91.39
2016-06-19T09:40:08.683Z,91.19
2016-06-19T09:41:08.124Z,90.38
2016-06-19T09:42:08.159Z,89.8
2016-06-19T09:43:08.803Z,89.23
2016-06-19T09:44:08.838Z,88.37
2016-06-19T09:45:08.888Z,88.17
2016-06-19T09:46:08.923Z,88.27
2016-06-19T09:47:08.958Z,87.98
2016-06-19T09:48:08.382Z,87.84
2016-06-19T09:49:08.418Z,88.84
2016-06-19T09:50:09.077Z,89.32
2016-06-19T09:51:08.503Z,89.61
2016-06-19T09:52:09.163Z,90.95
2016-06-19T09:53:08.572Z,92.06
2016-06-19T09:54:08.622Z,92.44
2016-06-19T09:55:08.657Z,92.54
2016-06-19T09:56:08.692Z,92.44
2016-06-19T09:57:09.336Z,92.92
2016-06-19T09:58:09.371Z,92.63
2016-06-19T09:59:08.828Z,91.86
2016-06-19T10:00:09.456Z,91.67
2016-06-19T10:01:09.490Z,92.25
2016-06-19T10:02:09.541Z,90.43
2016-06-19T10:03:09.576Z,89.13
2016-06-19T10:04:09.610Z,86.78
2016-06-19T10:05:09.660Z,84.61
2016-06-19T10:06:09.680Z,83.07
2016-06-19T10:07:09.120Z,82.78
2016-06-19T10:08:09.765Z,81.05
2016-06-19T10:09:09.815Z,81.63
2016-06-19T10:10:09.850Z,80.71
2016-06-19T10:11:09.884Z,78.98
2016-06-19T10:12:09.325Z,78.53
2016-06-19T10:13:09.360Z,77.86
2016-06-19T10:14:10.004Z,78.63
2016-06-19T10:15:09.445Z,77.09
2016-06-19T10:16:10.089Z,77.42
2016-06-19T10:17:09.530Z,76.46
2016-06-19T10:18:09.580Z,76.94
2016-06-19T10:19:10.225Z,76.59
2016-06-19T10:20:10.259Z,77.08
2016-06-19T10:21:09.685Z,76.65
2016-06-19T10:22:09.735Z,76.94
2016-06-19T10:23:09.770Z,77.23
2016-06-19T10:24:09.820Z,79.21
2016-06-19T10:25:09.854Z,80.04
2016-06-19T10:26:10.499Z,79.46
2016-06-19T10:27:09.939Z,80.07
2016-06-19T10:28:09.990Z,79.36
2016-06-19T10:29:10.618Z,78.5
2016-06-19T10:30:10.107Z,80.04
2016-06-19T10:31:10.111Z,80.57
2016-06-19T10:32:10.145Z,82.07
2016-06-19T10:33:10.805Z,81.97
2016-06-19T10:34:10.230Z,81.87
2016-06-19T10:35:10.874Z,82.26
2016-06-19T10:36:10.315Z,83.18
2016-06-19T10:37:10.959Z,82.98
2016-06-19T10:38:10.399Z,82.31
2016-06-19T10:39:11.044Z,82.79
2016-06-19T10:40:11.078Z,83.14
2016-06-19T10:41:10.520Z,84.09
2016-06-19T10:42:11.164Z,85.82
2016-06-19T10:43:11.214Z,87.98
2016-06-19T10:44:10.640Z,89.51
2016-06-19T10:45:11.283Z,91.14
2016-06-19T10:46:10.724Z,91.67
2016-06-19T10:47:10.758Z,92.54
2016-06-19T10:48:11.403Z,93.59
2016-06-19T10:49:11.438Z,94.55
2016-06-19T10:50:11.488Z,95.31
2016-06-19T10:51:11.523Z,95.6
2016-06-19T10:52:11.557Z,95.31
2016-06-19T10:53:11.608Z,94.35
2016-06-19T10:54:11.033Z,95.03
2016-06-19T10:55:11.068Z,96.27
2016-06-19T10:56:11.711Z,95.22
2016-06-19T10:57:11.762Z,94.55
2016-06-19T10:58:11.797Z,94.26
2016-06-19T10:59:11.832Z,94.35
2016-06-19T11:00:11.273Z,93.88
2016-06-19T11:01:11.309Z,93.59
2016-06-19T11:02:11.346Z,90.52
2016-06-19T11:03:11.382Z,89.08
2016-06-19T11:04:12.027Z,87.93
2016-06-19T11:05:11.469Z,86.44
2016-06-19T11:06:11.504Z,85.52
2016-06-19T11:07:12.149Z,84.47
2016-06-19T11:08:12.200Z,82.64
2016-06-19T11:09:11.626Z,79.55
2016-06-19T11:10:11.676Z,77.51
2016-06-19T11:11:12.321Z,76.65
2016-06-19T11:12:12.356Z,78.15
2016-06-19T11:13:11.781Z,78.34
2016-06-19T11:14:11.833Z,77.67
2016-06-19T11:15:11.867Z,78.53
2016-06-19T11:16:12.527Z,79.11
2016-06-19T11:17:12.562Z,78.53
2016-06-19T11:18:12.002Z,75.46
2016-06-19T11:19:12.631Z,72.36
2016-06-19T11:20:12.681Z,71.14
2016-06-19T11:21:12.732Z,68.04
2016-06-19T11:22:12.157Z,67.78
2016-06-19T11:23:12.817Z,68.9
2016-06-19T11:24:12.258Z,70.5
2016-06-19T11:25:12.886Z,70.31
2016-06-19T11:26:12.327Z,70.21
2016-06-19T11:27:12.378Z,70.02
2016-06-19T11:28:13.022Z,69.99
2016-06-19T11:29:12.462Z,69.29
2016-06-19T11:30:13.107Z,70
2016-06-19T11:31:12.547Z,71.31
2016-06-19T11:32:13.208Z,68.32
2016-06-19T11:33:13.242Z,65.88
2016-06-19T11:34:12.682Z,62.86
2016-06-19T11:35:13.327Z,61.51
2016-06-19T11:36:13.377Z,59.34
2016-06-19T11:37:12.818Z,58.86
2016-06-19T11:38:12.868Z,57.99
2016-06-19T11:39:13.528Z,55.77
2016-06-19T11:40:12.969Z,55.93
2016-06-19T11:41:13.613Z,56.41
2016-06-19T11:42:13.664Z,54.99
2016-06-19T11:43:13.105Z,55.02
2016-06-19T11:44:13.155Z,55.05
2016-06-19T11:45:13.206Z,54.57
2016-06-19T11:46:13.849Z,54.39
2016-06-19T11:47:13.900Z,56.21
2016-06-19T11:48:13.966Z,58.45
2016-06-19T11:49:14.000Z,60.13
2016-06-19T11:50:14.051Z,60.74
2016-06-19T11:51:13.491Z,59.13
2016-06-19T11:52:14.151Z,58
2016-06-19T11:53:13.593Z,58.42
2016-06-19T11:54:13.643Z,57.74
2016-06-19T11:55:13.694Z,57.52
2016-06-19T11:56:13.744Z,57.19
2016-06-19T11:57:14.404Z,58.06
2016-06-19T11:58:13.843Z,59.45
2016-06-19T11:59:13.879Z,58.03
2016-06-19T12:00:13.945Z,58
2016-06-19T12:01:13.995Z,56.84
2016-06-19T12:02:14.029Z,58.39
2016-06-19T12:03:14.080Z,60.64
2016-06-19T12:04:14.740Z,61.58
2016-06-19T12:05:14.790Z,63.15
2016-06-19T12:06:14.231Z,65.05
2016-06-19T12:07:14.891Z,64.08
2016-06-19T12:08:14.942Z,61.55
2016-06-19T12:09:14.975Z,58.42
2016-06-19T12:10:14.417Z,57.87
2016-06-19T12:11:15.076Z,59.03
2016-06-19T12:12:15.128Z,60.45
2016-06-19T12:13:15.162Z,60.64
2016-06-19T12:14:14.618Z,61.41
2016-06-19T12:15:15.262Z,62.54
2016-06-19T12:16:14.719Z,63.73
2016-06-19T12:17:15.363Z,65.63
2016-06-19T12:18:14.804Z,66.49
2016-06-19T12:19:15.463Z,66.58
2016-06-19T12:20:14.889Z,67.22
2016-06-19T12:21:14.940Z,66.74
2016-06-19T12:22:16.098Z,66.55
2016-06-19T12:23:15.024Z,64.66
2016-06-19T12:24:15.684Z,61.74
2016-06-19T12:25:15.734Z,58.75
2016-06-19T12:26:15.770Z,56.61
2016-06-19T12:27:15.819Z,56.41
2016-06-19T12:28:15.869Z,56.22
2016-06-19T12:29:15.920Z,58.58
2016-06-19T12:30:15.971Z,57.14
2016-06-19T12:31:16.004Z,54.61
2016-06-19T12:32:16.055Z,52.44
2016-06-19T12:33:16.106Z,51.18
2016-06-19T12:34:16.156Z,49.75
2016-06-19T12:35:15.596Z,48.42
2016-06-19T12:36:16.257Z,49.87
2016-06-19T12:37:15.697Z,52.82
2016-06-19T12:38:15.749Z,53.55
2016-06-19T12:39:15.798Z,56.48
2016-06-19T12:40:15.833Z,58.36
2016-06-19T12:41:16.493Z,61.22
2016-06-19T12:42:15.934Z,65.24
2016-06-19T12:43:15.985Z,66.17
2016-06-19T12:44:16.628Z,65.53
2016-06-19T12:45:16.086Z,65.53
2016-06-19T12:46:16.134Z,65.14
2016-06-19T12:47:16.170Z,64.12
2016-06-19T12:48:16.830Z,63.25
2016-06-19T12:49:16.270Z,64.21
2016-06-19T12:50:16.914Z,62.64
2016-06-19T12:51:16.356Z,62.93
2016-06-19T12:52:17.015Z,61.29
2016-06-19T12:53:16.441Z,61.97
2016-06-19T12:54:16.492Z,61.68